createdAt,value
2023-04-26T00:01:06.499Z,100.00
2023-04-26T00:03:36.927Z,100.00
2023-04-26T00:06:06.750Z,100.00
2023-04-26T00:08:33.260Z,100.00
2023-04-26T00:10:59.832Z,100.00
2023-04-26T00:13:28.540Z,100.00
2023-04-26T00:15:55.459Z,100.00
2023-04-26T00:18:22.023Z,100.00
2023-04-26T00:20:48.864Z,100.00
2023-04-26T00:23:15.789Z,100.00
2023-04-26T00:25:42.653Z,100.00
2023-04-26T00:28:11.264Z,100.00
2023-04-26T00:30:41.231Z,100.00
2023-04-26T00:33:09.940Z,100.00
2023-04-26T00:35:40.120Z,100.00
2023-04-26T00:38:06.645Z,100.00
2023-04-26T00:40:35.489Z,100.00
2023-04-26T00:43:05.310Z,100.00
2023-04-26T00:45:37.964Z,100.00
2023-04-26T00:48:05.413Z,100.00
2023-04-26T00:50:33.090Z,100.00
2023-04-26T00:53:00.848Z,100.00
2023-04-26T00:55:27.614Z,100.00
2023-04-26T00:58:03.380Z,100.00
2023-04-26T01:00:32.204Z,100.00
2023-04-26T01:02:59.594Z,100.00
2023-04-26T01:05:26.529Z,100.00
2023-04-26T01:07:53.360Z,100.00
2023-04-26T01:10:20.061Z,100.00
2023-04-26T01:12:48.176Z,100.00
2023-04-26T01:15:14.777Z,100.00
2023-04-26T01:17:41.386Z,100.00
2023-04-26T01:20:12.175Z,100.00
2023-04-26T01:22:38.633Z,100.00
2023-04-26T01:25:09.251Z,100.00
2023-04-26T01:27:36.482Z,100.00
2023-04-26T01:30:03.502Z,100.00
2023-04-26T01:32:31.875Z,100.00
2023-04-26T01:35:02.393Z,100.00
2023-04-26T01:37:28.921Z,100.00
2023-04-26T01:39:55.809Z,100.00
2023-04-26T01:42:30.952Z,100.00
2023-04-26T01:44:58.790Z,100.00
2023-04-26T01:47:26.584Z,100.00
2023-04-26T01:49:53.425Z,100.00
2023-04-26T01:52:20.029Z,100.00
2023-04-26T01:54:46.805Z,100.00
2023-04-26T01:57:13.388Z,100.00
2023-04-26T01:59:39.920Z,100.00
2023-04-26T02:02:07.050Z,100.00
2023-04-26T02:04:33.947Z,100.00
2023-04-26T02:07:00.696Z,100.00
2023-04-26T02:09:27.278Z,100.00
2023-04-26T02:11:55.966Z,100.00
2023-04-26T02:14:22.537Z,100.00
2023-04-26T02:16:49.271Z,100.00
2023-04-26T02:19:24.242Z,100.00
2023-04-26T02:21:55.828Z,100.00
2023-04-26T02:24:23.192Z,100.00
2023-04-26T02:26:51.984Z,100.00
2023-04-26T02:29:22.656Z,100.00
2023-04-26T02:31:53.605Z,100.00
2023-04-26T02:34:20.509Z,100.00
2023-04-26T02:36:46.957Z,100.00
2023-04-26T02:39:20.073Z,100.00
2023-04-26T02:41:46.833Z,100.00
2023-04-26T02:44:13.366Z,100.00
2023-04-26T02:46:41.870Z,100.00
2023-04-26T02:49:08.467Z,100.00
2023-04-26T02:51:35.440Z,100.00
2023-04-26T02:54:04.565Z,100.00
2023-04-26T02:56:32.286Z,100.00
2023-04-26T02:58:58.829Z,100.00
2023-04-26T03:01:25.726Z,100.00
2023-04-26T03:03:52.479Z,100.00
2023-04-26T03:06:19.046Z,100.00
2023-04-26T03:08:45.893Z,100.00
2023-04-26T03:11:12.474Z,100.00
2023-04-26T03:13:39.008Z,100.00
2023-04-26T03:16:08.398Z,100.00
2023-04-26T03:18:34.953Z,100.00
2023-04-26T03:21:01.595Z,100.00
2023-04-26T03:23:31.110Z,100.00
2023-04-26T03:25:57.597Z,100.00
2023-04-26T03:28:24.280Z,100.00
2023-04-26T03:30:51.208Z,100.00
2023-04-26T03:33:19.980Z,100.00
2023-04-26T03:35:46.678Z,100.00
2023-04-26T03:38:13.467Z,100.00
2023-04-26T03:40:40.111Z,100.00
2023-04-26T03:43:06.919Z,100.00
2023-04-26T03:45:35.379Z,100.00
2023-04-26T03:48:01.947Z,100.00
2023-04-26T03:50:28.490Z,100.00
2023-04-26T03:53:01.249Z,100.00
2023-04-26T03:55:36.372Z,100.00
2023-04-26T03:58:04.650Z,100.00
2023-04-26T04:00:33.064Z,100.00
2023-04-26T04:03:01.402Z,100.00
2023-04-26T04:05:28.132Z,100.00
2023-04-26T04:07:54.777Z,100.00
2023-04-26T04:10:27.910Z,100.00
2023-04-26T04:12:56.439Z,100.00
2023-04-26T04:15:23.477Z,100.00
2023-04-26T04:17:50.337Z,100.00
2023-04-26T04:20:17.034Z,100.00
2023-04-26T04:22:43.625Z,100.00
2023-04-26T04:25:16.922Z,100.00
2023-04-26T04:27:43.585Z,100.00
2023-04-26T04:30:10.642Z,100.00
2023-04-26T04:32:40.465Z,100.00
2023-04-26T04:35:07.692Z,100.00
2023-04-26T04:37:35.241Z,100.00
2023-04-26T04:40:01.969Z,100.00
2023-04-26T04:42:28.490Z,100.00
2023-04-26T04:44:57.621Z,100.00
2023-04-26T04:47:24.610Z,100.00
2023-04-26T04:49:54.191Z,100.00
2023-04-26T04:52:23.321Z,100.00
2023-04-26T04:54:51.584Z,100.00
2023-04-26T04:57:18.929Z,100.00
2023-04-26T04:59:45.431Z,100.00
2023-04-26T05:02:13.837Z,100.00
2023-04-26T05:04:40.573Z,100.00
2023-04-26T05:07:07.875Z,100.00
2023-04-26T05:09:36.351Z,100.00
2023-04-26T05:12:03.213Z,100.00
2023-04-26T05:14:30.586Z,100.00
2023-04-26T05:16:59.399Z,100.00
2023-04-26T05:19:26.068Z,100.00
2023-04-26T05:21:53.218Z,100.00
2023-04-26T05:24:20.155Z,100.00
2023-04-26T05:26:47.547Z,100.00
2023-04-26T05:29:14.147Z,100.00
2023-04-26T05:31:45.658Z,100.00
2023-04-26T05:34:12.158Z,100.00
2023-04-26T05:36:38.661Z,100.00
2023-04-26T05:39:10.317Z,100.00
2023-04-26T05:41:36.834Z,100.00
2023-04-26T05:44:06.707Z,100.00
2023-04-26T05:46:41.411Z,100.00
2023-04-26T05:49:07.992Z,100.00
2023-04-26T05:51:34.554Z,100.00
2023-04-26T05:54:01.366Z,100.00
2023-04-26T05:56:27.860Z,100.00
2023-04-26T05:58:54.363Z,100.00
2023-04-26T06:01:21.385Z,100.00
2023-04-26T06:03:48.276Z,100.00
2023-04-26T06:06:15.931Z,100.00
2023-04-26T06:08:43.286Z,100.00
2023-04-26T06:11:09.845Z,100.00
2023-04-26T06:13:39.696Z,100.00
2023-04-26T06:16:08.197Z,100.00
2023-04-26T06:18:34.678Z,100.00
2023-04-26T06:21:01.166Z,100.00
2023-04-26T06:23:29.598Z,100.00
2023-04-26T06:25:56.067Z,100.00
2023-04-26T06:28:22.640Z,100.00
2023-04-26T06:30:49.473Z,100.00
2023-04-26T06:33:17.788Z,100.00
2023-04-26T06:35:44.337Z,100.00
2023-04-26T06:38:19.123Z,100.00
2023-04-26T06:40:45.782Z,100.00
2023-04-26T06:43:12.286Z,100.00
2023-04-26T06:45:45.424Z,100.00
2023-04-26T06:48:12.194Z,100.00
2023-04-26T06:50:41.785Z,100.00
2023-04-26T06:53:08.534Z,100.00
2023-04-26T06:55:37.232Z,100.00
2023-04-26T06:58:03.797Z,100.00
2023-04-26T07:00:32.524Z,100.00
2023-04-26T07:02:59.254Z,100.00
2023-04-26T07:05:26.085Z,100.00
2023-04-26T07:08:01.331Z,100.00
2023-04-26T07:10:27.967Z,100.00
2023-04-26T07:12:54.459Z,100.00
2023-04-26T07:15:26.033Z,100.00
2023-04-26T07:17:52.527Z,100.00
2023-04-26T07:20:22.978Z,100.00
2023-04-26T07:22:50.147Z,100.00
2023-04-26T07:25:17.403Z,100.00
2023-04-26T07:27:43.959Z,100.00
2023-04-26T07:30:12.716Z,100.00
2023-04-26T07:32:41.783Z,100.00
2023-04-26T07:35:10.548Z,100.00
2023-04-26T07:37:37.705Z,100.00
2023-04-26T07:40:05.119Z,100.00
2023-04-26T07:42:31.947Z,100.00
2023-04-26T07:44:58.530Z,100.00
2023-04-26T07:47:25.068Z,100.00
2023-04-26T07:49:54.750Z,100.00
2023-04-26T07:52:25.698Z,100.00
2023-04-26T07:54:52.227Z,100.00
2023-04-26T07:57:18.747Z,100.00
2023-04-26T07:59:50.533Z,100.00
2023-04-26T08:02:17.190Z,100.00
2023-04-26T08:04:50.125Z,100.00
2023-04-26T08:07:17.233Z,100.00
2023-04-26T08:09:43.854Z,100.00
2023-04-26T08:12:12.536Z,100.00
2023-04-26T08:14:39.416Z,100.00
2023-04-26T08:17:07.129Z,100.00
2023-04-26T08:19:34.301Z,100.00
2023-04-26T08:22:01.230Z,100.00
2023-04-26T08:24:27.777Z,99.64
2023-04-26T08:26:55.425Z,97.29
2023-04-26T08:29:26.457Z,95.97
2023-04-26T08:31:53.076Z,98.34
2023-04-26T08:34:19.562Z,97.30
2023-04-26T08:36:47.908Z,97.91
2023-04-26T08:39:18.212Z,96.70
2023-04-26T08:41:50.378Z,91.31
2023-04-26T08:44:23.328Z,92.33
2023-04-26T08:47:16.912Z,99.37
2023-04-26T08:49:48.781Z,96.39
2023-04-26T08:52:17.288Z,96.52
2023-04-26T08:54:48.851Z,94.60
2023-04-26T08:57:15.932Z,93.89
2023-04-26T08:59:44.293Z,94.58
2023-04-26T09:02:17.507Z,93.41
2023-04-26T09:07:44.219Z,90.04
2023-04-26T09:10:13.552Z,91.91
2023-04-26T09:12:40.921Z,88.35
2023-04-26T09:15:08.702Z,92.26
2023-04-26T09:17:41.394Z,91.71
2023-04-26T09:20:30.694Z,88.49
2023-04-26T09:23:03.633Z,92.19
2023-04-26T09:25:37.140Z,91.29
2023-04-26T09:28:18.641Z,89.23
2023-04-26T09:30:51.872Z,85.18
2023-04-26T09:33:19.615Z,86.35
2023-04-26T09:35:49.639Z,85.53
2023-04-26T09:38:17.801Z,83.44
2023-04-26T09:40:49.559Z,83.89
2023-04-26T09:43:20.911Z,86.28
2023-04-26T09:45:56.568Z,83.55
2023-04-26T09:48:30.471Z,82.71
2023-04-26T09:50:59.557Z,81.79
2023-04-26T09:53:45.733Z,83.03
2023-04-26T09:56:21.952Z,80.25
2023-04-26T09:58:52.492Z,82.17
2023-04-26T10:01:21.533Z,83.40
2023-04-26T10:03:48.445Z,81.53
2023-04-26T10:06:16.250Z,82.99
2023-04-26T10:08:43.442Z,83.86
2023-04-26T10:11:12.901Z,84.91
2023-04-26T10:13:47.531Z,85.09
2023-04-26T10:16:14.266Z,84.39
2023-04-26T10:18:41.066Z,85.16
2023-04-26T10:21:13.139Z,83.77
2023-04-26T10:23:40.994Z,81.93
2023-04-26T10:26:07.668Z,83.17
2023-04-26T10:28:41.911Z,82.75
2023-04-26T10:31:08.421Z,82.70
2023-04-26T10:33:35.147Z,81.01
2023-04-26T10:36:08.144Z,77.66
2023-04-26T10:38:37.324Z,75.25
2023-04-26T10:41:35.404Z,70.59
2023-04-26T10:44:41.268Z,72.06
2023-04-26T10:47:20.787Z,71.56
2023-04-26T10:49:48.305Z,74.64
2023-04-26T10:52:20.260Z,75.42
2023-04-26T10:55:00.305Z,68.31
2023-04-26T10:57:48.938Z,65.51
2023-04-26T11:00:23.520Z,67.66
2023-04-26T11:02:51.891Z,65.84
2023-04-26T11:05:49.344Z,61.85
2023-04-26T11:08:19.792Z,55.62
2023-04-26T11:11:10.986Z,65.06
2023-04-26T11:13:42.606Z,64.42
2023-04-26T11:16:11.233Z,65.66
2023-04-26T11:18:42.466Z,67.52
2023-04-26T11:21:10.508Z,68.39
2023-04-26T11:23:37.551Z,68.58
2023-04-26T11:26:10.299Z,68.68
2023-04-26T11:28:38.363Z,66.91
2023-04-26T11:31:07.276Z,67.93
2023-04-26T11:33:38.951Z,67.38
2023-04-26T11:36:05.925Z,67.94
2023-04-26T11:38:32.462Z,67.31
2023-04-26T11:41:03.777Z,67.36
2023-04-26T11:43:35.611Z,69.82
2023-04-26T11:46:03.283Z,69.57
2023-04-26T11:48:37.409Z,70.12
2023-04-26T11:51:05.277Z,71.20
2023-04-26T11:53:37.810Z,69.07
2023-04-26T11:56:25.401Z,67.62
2023-04-26T11:58:53.107Z,71.48
2023-04-26T12:01:24.564Z,69.67
2023-04-26T12:03:59.361Z,66.97
2023-04-26T12:06:31.029Z,67.12
2023-04-26T12:08:57.487Z,70.28
2023-04-26T12:11:26.535Z,64.03
2023-04-26T12:13:53.051Z,69.35
2023-04-26T12:16:26.071Z,69.28
2023-04-26T12:18:57.010Z,69.43
2023-04-26T12:21:30.856Z,66.04
2023-04-26T12:23:57.839Z,63.20
2023-04-26T12:26:48.949Z,61.59
2023-04-26T12:29:15.770Z,65.10
2023-04-26T12:31:43.058Z,64.77
2023-04-26T12:34:09.747Z,63.87
2023-04-26T12:36:38.189Z,64.73
2023-04-26T12:39:05.475Z,63.33
2023-04-26T12:41:32.080Z,62.80
2023-04-26T12:43:58.714Z,63.03
2023-04-26T12:46:26.207Z,64.13
2023-04-26T12:48:53.495Z,63.73
2023-04-26T12:51:25.633Z,63.29
2023-04-26T12:53:52.108Z,62.08
2023-04-26T12:56:18.955Z,59.65
2023-04-26T12:58:51.574Z,62.30
2023-04-26T13:01:20.522Z,62.50
2023-04-26T13:03:55.612Z,61.15
2023-04-26T13:06:28.829Z,60.88
2023-04-26T13:08:58.838Z,61.83
2023-04-26T13:11:25.482Z,61.14
2023-04-26T13:13:54.346Z,61.51
2023-04-26T13:16:22.790Z,61.51
2023-04-26T13:18:49.343Z,62.07
2023-04-26T13:21:17.680Z,59.84
2023-04-26T13:23:44.194Z,60.64
2023-04-26T13:26:10.840Z,59.54
2023-04-26T13:28:43.845Z,59.15
2023-04-26T13:31:10.489Z,59.27
2023-04-26T13:33:37.043Z,58.96
2023-04-26T13:36:04.041Z,59.25
2023-04-26T13:38:32.353Z,60.54
2023-04-26T13:40:59.438Z,58.99
2023-04-26T13:43:26.255Z,59.18
2023-04-26T13:45:52.853Z,59.64
2023-04-26T13:48:24.814Z,59.29
2023-04-26T13:50:53.086Z,59.54
2023-04-26T13:53:19.963Z,59.57
2023-04-26T13:55:46.528Z,58.75
2023-04-26T13:58:14.963Z,58.79
2023-04-26T14:00:42.065Z,57.64
2023-04-26T14:03:08.859Z,57.99
2023-04-26T14:05:37.393Z,57.87
2023-04-26T14:08:03.998Z,58.20
2023-04-26T14:10:30.915Z,58.64
2023-04-26T14:13:03.901Z,57.74
2023-04-26T14:15:30.385Z,58.04
2023-04-26T14:17:57.012Z,58.11
2023-04-26T14:20:25.267Z,58.52
2023-04-26T14:22:51.855Z,57.38
2023-04-26T14:25:18.977Z,56.48
2023-04-26T14:27:47.238Z,57.36
2023-04-26T14:30:14.438Z,57.49
2023-04-26T14:32:41.526Z,57.92
2023-04-26T14:35:14.317Z,57.52
2023-04-26T14:37:40.814Z,58.70
2023-04-26T14:40:08.099Z,57.41
2023-04-26T14:42:34.853Z,59.13
2023-04-26T14:45:01.525Z,57.61
2023-04-26T14:47:29.323Z,60.17
2023-04-26T14:49:59.352Z,56.03
2023-04-26T14:52:28.010Z,59.06
2023-04-26T14:54:54.713Z,59.32
2023-04-26T14:57:34.081Z,59.80
2023-04-26T15:00:06.849Z,59.86
2023-04-26T15:02:35.910Z,59.41
2023-04-26T15:05:05.885Z,59.84
2023-04-26T15:07:33.166Z,59.21
2023-04-26T15:10:00.612Z,56.53
2023-04-26T15:12:28.130Z,58.40
2023-04-26T15:14:58.410Z,59.70
2023-04-26T15:17:24.942Z,58.16
2023-04-26T15:19:57.579Z,59.48
2023-04-26T15:22:24.191Z,59.73
2023-04-26T15:24:51.188Z,58.45
2023-04-26T15:27:19.696Z,58.27
2023-04-26T15:29:49.718Z,58.87
2023-04-26T15:32:16.346Z,58.26
2023-04-26T15:34:43.924Z,59.40
2023-04-26T15:37:10.730Z,60.10
2023-04-26T15:39:37.610Z,60.72
2023-04-26T15:42:07.461Z,60.89
2023-04-26T15:44:34.012Z,60.43
2023-04-26T15:47:03.876Z,60.83
2023-04-26T15:49:32.679Z,60.75
2023-04-26T15:52:01.274Z,60.88
2023-04-26T15:54:27.977Z,61.22
2023-04-26T15:56:55.417Z,60.07
2023-04-26T15:59:21.927Z,61.22
2023-04-26T16:01:51.746Z,58.50
2023-04-26T16:04:18.627Z,59.65
2023-04-26T16:06:45.445Z,59.81
2023-04-26T16:09:24.650Z,60.87
2023-04-26T16:11:58.904Z,60.32
2023-04-26T16:14:25.392Z,60.81
2023-04-26T16:16:51.877Z,60.95
2023-04-26T16:19:18.534Z,60.52
2023-04-26T16:21:45.082Z,61.06
2023-04-26T16:24:13.970Z,61.24
2023-04-26T16:26:42.839Z,61.67
2023-04-26T16:29:09.395Z,60.92
2023-04-26T16:31:35.967Z,61.14
2023-04-26T16:34:11.247Z,61.27
2023-04-26T16:36:40.307Z,60.43
2023-04-26T16:39:07.686Z,61.25
2023-04-26T16:41:34.628Z,60.69
2023-04-26T16:44:01.160Z,61.21
2023-04-26T16:46:28.077Z,61.92
2023-04-26T16:48:56.398Z,61.89
2023-04-26T16:51:23.356Z,61.25
2023-04-26T16:53:50.055Z,62.33
2023-04-26T16:56:16.926Z,61.49
2023-04-26T16:58:47.076Z,61.08
2023-04-26T17:01:13.658Z,60.22
2023-04-26T17:03:42.141Z,60.80
2023-04-26T17:06:10.335Z,60.07
2023-04-26T17:08:36.973Z,60.67
2023-04-26T17:11:09.623Z,61.15
2023-04-26T17:13:36.155Z,62.18
2023-04-26T17:16:02.726Z,62.49
2023-04-26T17:18:29.386Z,62.33
2023-04-26T17:20:56.435Z,62.12
2023-04-26T17:23:23.070Z,62.48
2023-04-26T17:25:53.276Z,61.90
2023-04-26T17:28:21.232Z,62.19
2023-04-26T17:30:47.811Z,62.38
2023-04-26T17:33:23.373Z,62.16
2023-04-26T17:35:51.901Z,61.58
2023-04-26T17:38:18.390Z,61.52
2023-04-26T17:40:49.490Z,61.63
2023-04-26T17:43:16.190Z,61.69
2023-04-26T17:45:42.716Z,61.73
2023-04-26T17:48:14.684Z,61.61
2023-04-26T17:50:41.372Z,61.55
2023-04-26T17:53:08.684Z,61.67
2023-04-26T17:55:37.133Z,61.88
2023-04-26T17:58:03.673Z,61.76
2023-04-26T18:00:36.248Z,61.88
2023-04-26T18:03:05.176Z,61.86
2023-04-26T18:05:32.269Z,62.20
2023-04-26T18:07:59.188Z,63.07
2023-04-26T18:10:27.714Z,63.39
2023-04-26T18:12:54.230Z,63.58
2023-04-26T18:15:20.951Z,64.29
2023-04-26T18:17:56.111Z,63.46
2023-04-26T18:20:22.831Z,63.42
2023-04-26T18:22:49.463Z,64.37
2023-04-26T18:25:17.748Z,64.16
2023-04-26T18:27:44.345Z,64.59
2023-04-26T18:30:12.800Z,65.06
2023-04-26T18:32:39.487Z,65.79
2023-04-26T18:35:06.590Z,65.93
2023-04-26T18:37:33.219Z,68.73
2023-04-26T18:39:59.916Z,69.66
2023-04-26T18:42:26.767Z,70.78
2023-04-26T18:44:53.552Z,70.65
2023-04-26T18:47:20.080Z,72.41
2023-04-26T18:49:46.935Z,73.41
2023-04-26T18:52:13.835Z,73.38
2023-04-26T18:54:48.673Z,74.36
2023-04-26T18:57:15.687Z,74.73
2023-04-26T18:59:42.185Z,74.83
2023-04-26T19:02:08.817Z,75.47
2023-04-26T19:04:35.624Z,75.26
2023-04-26T19:07:07.950Z,75.60
2023-04-26T19:09:46.531Z,76.20
2023-04-26T19:12:13.810Z,76.56
2023-04-26T19:14:42.191Z,77.58
2023-04-26T19:17:08.686Z,77.22
2023-04-26T19:19:35.164Z,77.17
2023-04-26T19:22:05.204Z,77.18
2023-04-26T19:24:34.213Z,77.31
2023-04-26T19:27:00.888Z,77.84
2023-04-26T19:29:27.592Z,78.41
2023-04-26T19:31:54.187Z,78.21
2023-04-26T19:34:21.620Z,77.30
2023-04-26T19:36:54.847Z,77.44
2023-04-26T19:39:23.583Z,78.22
2023-04-26T19:41:54.137Z,78.88
2023-04-26T19:44:20.728Z,79.13
2023-04-26T19:46:47.276Z,79.37
2023-04-26T19:49:13.796Z,80.04
2023-04-26T19:51:40.421Z,80.35
2023-04-26T19:54:07.460Z,80.28
2023-04-26T19:56:33.983Z,80.47
2023-04-26T19:59:02.447Z,80.87
2023-04-26T20:01:30.953Z,81.07
2023-04-26T20:03:57.878Z,80.96
2023-04-26T20:06:26.304Z,81.10
2023-04-26T20:08:52.937Z,81.54
2023-04-26T20:11:19.795Z,82.37
2023-04-26T20:13:52.904Z,82.64
2023-04-26T20:16:20.034Z,82.80
2023-04-26T20:18:46.539Z,82.18
2023-04-26T20:21:19.291Z,82.63
2023-04-26T20:23:47.761Z,83.12
2023-04-26T20:26:14.280Z,83.89
2023-04-26T20:28:42.549Z,84.46
2023-04-26T20:31:09.480Z,84.58
2023-04-26T20:33:36.166Z,85.07
2023-04-26T20:36:04.499Z,85.24
2023-04-26T20:38:31.003Z,86.41
2023-04-26T20:40:57.537Z,86.25
2023-04-26T20:43:26.393Z,86.34
2023-04-26T20:45:55.000Z,86.71
2023-04-26T20:48:22.193Z,87.06
2023-04-26T20:50:50.456Z,88.06
2023-04-26T20:53:17.129Z,88.44
2023-04-26T20:55:43.927Z,88.32
2023-04-26T20:58:10.662Z,88.06
2023-04-26T21:00:37.311Z,89.28
2023-04-26T21:03:04.204Z,88.92
2023-04-26T21:05:32.728Z,89.66
2023-04-26T21:07:59.273Z,91.27
2023-04-26T21:10:25.913Z,92.08
2023-04-26T21:13:01.118Z,92.46
2023-04-26T21:15:27.695Z,92.16
2023-04-26T21:17:54.436Z,91.67
2023-04-26T21:20:21.214Z,91.97
2023-04-26T21:22:48.024Z,91.65
2023-04-26T21:27:42.578Z,91.98
2023-04-26T21:30:09.638Z,92.07
2023-04-26T21:32:37.706Z,92.16
2023-04-26T21:35:13.303Z,92.40
2023-04-26T21:37:39.808Z,92.20
2023-04-26T21:40:08.067Z,93.15
2023-04-26T21:42:34.762Z,93.24
2023-04-26T21:45:05.654Z,92.22
2023-04-26T21:47:32.448Z,92.40
2023-04-26T21:50:00.722Z,93.08
2023-04-26T21:52:27.253Z,93.47
2023-04-26T21:54:54.037Z,93.46
2023-04-26T21:57:25.784Z,93.88
2023-04-26T21:59:52.272Z,93.87
2023-04-26T22:02:19.148Z,94.04
2023-04-26T22:04:45.895Z,94.34
2023-04-26T22:07:14.767Z,94.35
2023-04-26T22:09:41.301Z,94.76
2023-04-26T22:12:07.996Z,95.05
2023-04-26T22:14:34.474Z,95.46
2023-04-26T22:17:03.053Z,96.32
2023-04-26T22:19:31.727Z,96.35
2023-04-26T22:21:58.361Z,97.93
2023-04-26T22:24:24.943Z,97.90
2023-04-26T22:26:53.202Z,98.37
2023-04-26T22:29:20.039Z,97.68
2023-04-26T22:31:46.567Z,97.21
2023-04-26T22:34:13.164Z,95.68
2023-04-26T22:36:39.754Z,95.14
2023-04-26T22:39:06.527Z,95.66
2023-04-26T22:41:39.663Z,95.00
2023-04-26T22:44:06.146Z,95.32
2023-04-26T22:46:32.641Z,95.90
2023-04-26T22:49:07.821Z,96.00
2023-04-26T22:51:34.311Z,96.71
2023-04-26T22:54:01.313Z,97.32
2023-04-26T22:56:27.925Z,98.22
2023-04-26T22:58:54.630Z,98.97
2023-04-26T23:01:21.271Z,98.33
2023-04-26T23:03:49.558Z,98.58
2023-04-26T23:06:16.178Z,98.94
2023-04-26T23:08:42.635Z,100.00
2023-04-26T23:11:14.619Z,99.17
2023-04-26T23:13:41.346Z,98.97
2023-04-26T23:16:07.962Z,99.69
2023-04-26T23:18:35.426Z,99.80
2023-04-26T23:21:03.971Z,100.00
2023-04-26T23:23:30.660Z,100.00
2023-04-26T23:25:57.297Z,99.97
2023-04-26T23:28:23.831Z,100.00
2023-04-26T23:30:52.244Z,100.00
2023-04-26T23:33:18.873Z,100.00
2023-04-26T23:35:45.566Z,100.00
2023-04-26T23:38:12.005Z,100.00
2023-04-26T23:40:38.724Z,100.00
2023-04-26T23:43:06.273Z,100.00
2023-04-26T23:45:33.078Z,100.00
2023-04-26T23:48:01.439Z,100.00
2023-04-26T23:50:28.009Z,100.00
2023-04-26T23:52:54.697Z,100.00
2023-04-26T23:55:23.367Z,100.00
2023-04-26T23:57:49.873Z,100.00
